Terminal Aerodrome Forecast
Issued by NWS

Home | Current Version | Previous Version | Text Only | Print | Product List | Glossary On
Versions: 1 2 3 4 5 6 7 8 9 10 11 12
567
FTAK31 PAJN 222340
TAFAYA
TAF
PAYA 222340Z 2300/2324 05005KT P6SM -SHSN SCT030 OVC050
      TEMPO 2300/2304 3SM -SN BR BKN025 OVC040
     FM230500 02003KT P6SM VCSH SCT030 OVC050
     FM231200 00000KT P6SM BKN050
      AMD LTD TO CLD VIS AND WIND 2301/2309=

USA.gov is the U.S. government's official web portal to all federal, state and local government web resources and services.